createdAt,value
2023-04-05T00:00:55.545Z,4.07
2023-04-05T00:03:38.241Z,3.50
2023-04-05T00:06:22.498Z,3.60
2023-04-05T00:09:05.907Z,4.80
2023-04-05T00:11:48.956Z,3.45
2023-04-05T00:14:32.915Z,4.88
2023-04-05T00:17:16.048Z,4.45
2023-04-05T00:19:58.639Z,4.72
2023-04-05T00:22:43.192Z,3.67
2023-04-05T00:25:25.798Z,4.10
2023-04-05T00:28:08.416Z,4.65
2023-04-05T00:30:54.307Z,2.90
2023-04-05T00:33:37.287Z,3.97
2023-04-05T00:36:20.426Z,2.95
2023-04-05T00:39:03.103Z,3.00
2023-04-05T00:41:48.265Z,4.40
2023-04-05T00:44:34.712Z,3.70
2023-04-05T00:47:18.797Z,3.80
2023-04-05T00:50:01.892Z,3.85
2023-04-05T00:52:44.763Z,3.47
2023-04-05T00:55:27.912Z,4.15
2023-04-05T00:58:11.059Z,4.68
2023-04-05T01:00:59.759Z,5.25
2023-04-05T01:03:46.263Z,4.82
2023-04-05T01:06:35.456Z,5.30
2023-04-05T01:09:23.213Z,5.07
2023-04-05T01:12:07.165Z,2.90
2023-04-05T01:14:51.292Z,3.13
2023-04-05T01:17:39.681Z,3.35
2023-04-05T01:20:25.991Z,4.72
2023-04-05T01:23:22.922Z,4.32
2023-04-05T01:26:15.096Z,3.30
2023-04-05T01:29:13.639Z,3.63
2023-04-05T01:32:01.696Z,3.83
2023-04-05T01:34:51.492Z,3.55
2023-04-05T01:37:35.520Z,3.50
2023-04-05T01:40:18.633Z,2.53
2023-04-05T01:43:02.364Z,3.53
2023-04-05T01:45:45.742Z,3.53
2023-04-05T01:48:29.684Z,2.88
2023-04-05T01:51:12.410Z,4.35
2023-04-05T01:53:55.074Z,2.95
2023-04-05T01:56:37.771Z,2.90
2023-04-05T01:59:20.428Z,3.50
2023-04-05T02:02:03.159Z,4.28
2023-04-05T02:04:47.209Z,4.47
2023-04-05T02:07:30.174Z,3.47
2023-04-05T02:10:12.855Z,3.25
2023-04-05T02:12:55.538Z,4.90
2023-04-05T02:15:38.390Z,5.00
2023-04-05T02:18:22.355Z,5.57
2023-04-05T02:21:07.973Z,3.30
2023-04-05T02:23:50.757Z,4.13
2023-04-05T02:26:33.609Z,5.68
2023-04-05T02:29:16.386Z,4.20
2023-04-05T02:31:59.048Z,3.53
2023-04-05T02:34:42.158Z,2.58
2023-04-05T02:37:27.323Z,4.22
2023-04-05T02:40:15.247Z,4.00
2023-04-05T02:42:57.906Z,3.60
2023-04-05T02:45:40.684Z,3.67
2023-04-05T02:48:23.899Z,4.32
2023-04-05T02:51:07.797Z,2.65
2023-04-05T02:53:52.011Z,3.70
2023-04-05T02:56:36.663Z,2.42
2023-04-05T02:59:25.363Z,3.13
2023-04-05T03:02:08.521Z,2.20
2023-04-05T03:04:53.286Z,3.80
2023-04-05T03:07:36.852Z,2.50
2023-04-05T03:10:26.228Z,5.20
2023-04-05T03:13:13.823Z,4.25
2023-04-05T03:15:57.166Z,2.88
2023-04-05T03:18:42.836Z,3.13
2023-04-05T03:21:27.038Z,2.85
2023-04-05T03:24:19.297Z,4.10
2023-04-05T03:27:05.932Z,3.28
2023-04-05T03:29:54.732Z,3.58
2023-04-05T03:32:37.407Z,4.97
2023-04-05T03:35:29.663Z,3.65
2023-04-05T03:38:12.430Z,2.78
2023-04-05T03:41:03.404Z,3.47
2023-04-05T03:43:48.778Z,4.93
2023-04-05T03:46:32.220Z,3.80
2023-04-05T03:49:16.239Z,3.53
2023-04-05T03:51:58.884Z,3.95
2023-04-05T03:54:41.685Z,2.90
2023-04-05T03:57:24.824Z,3.63
2023-04-05T04:00:14.701Z,3.35
2023-04-05T04:03:15.763Z,5.00
2023-04-05T04:06:03.778Z,4.65
2023-04-05T04:08:46.582Z,4.13
2023-04-05T04:11:29.184Z,2.97
2023-04-05T04:14:12.043Z,3.38
2023-04-05T04:17:29.548Z,4.13
2023-04-05T04:20:31.181Z,3.30
2023-04-05T04:23:30.508Z,3.20
2023-04-05T04:26:37.576Z,3.95
2023-04-05T04:29:47.396Z,2.60
2023-04-05T04:32:55.261Z,4.22
2023-04-05T04:35:41.174Z,3.05
2023-04-05T04:38:44.656Z,2.60
2023-04-05T04:41:29.918Z,2.60
2023-04-05T04:44:42.987Z,3.80
2023-04-05T04:47:57.082Z,2.38
2023-04-05T04:51:06.038Z,3.15
2023-04-05T04:53:51.607Z,3.70
2023-04-05T04:56:34.320Z,4.03
2023-04-05T04:59:17.146Z,3.63
2023-04-05T05:01:59.863Z,4.68
2023-04-05T05:04:44.509Z,3.40
2023-04-05T05:07:27.223Z,7.43
2023-04-05T05:10:10.399Z,3.90
2023-04-05T05:12:54.112Z,3.03
2023-04-05T05:15:36.808Z,4.15
2023-04-05T05:18:19.751Z,3.60
2023-04-05T05:21:03.790Z,3.08
2023-04-05T05:23:47.000Z,2.90
2023-04-05T05:26:29.706Z,6.65
2023-04-05T05:29:12.420Z,3.10
2023-04-05T05:31:58.121Z,3.60
2023-04-05T05:34:41.435Z,4.80
2023-04-05T05:37:32.064Z,5.32
2023-04-05T05:40:16.329Z,3.72
2023-04-05T05:42:58.983Z,3.90
2023-04-05T05:45:41.999Z,4.55
2023-04-05T05:48:24.728Z,5.40
2023-04-05T05:51:09.852Z,3.75
2023-04-05T05:53:53.838Z,4.45
2023-04-05T05:56:36.628Z,4.80
2023-04-05T05:59:19.310Z,3.72
2023-04-05T06:02:01.985Z,7.63
2023-04-05T06:04:45.489Z,4.55
2023-04-05T06:07:28.519Z,4.22
2023-04-05T06:10:13.203Z,4.38
2023-04-05T06:12:56.008Z,4.65
2023-04-05T06:15:38.705Z,7.30
2023-04-05T06:18:22.060Z,7.45
2023-04-05T06:21:04.862Z,6.40
2023-04-05T06:23:48.228Z,6.15
2023-04-05T06:26:32.353Z,6.35
2023-04-05T06:29:15.055Z,6.20
2023-04-05T06:31:57.796Z,8.35
2023-04-05T06:34:41.111Z,6.57
2023-04-05T06:37:23.847Z,5.63
2023-04-05T06:40:07.219Z,6.65
2023-04-05T06:42:51.264Z,4.03
2023-04-05T06:45:38.818Z,3.53
2023-04-05T06:48:21.706Z,4.47
2023-04-05T06:51:04.648Z,4.25
2023-04-05T06:53:47.312Z,5.45
2023-04-05T06:56:30.061Z,6.53
2023-04-05T06:59:14.006Z,3.97
2023-04-05T07:01:56.618Z,4.10
2023-04-05T07:04:39.959Z,5.97
2023-04-05T07:07:22.704Z,5.35
2023-04-05T07:10:05.847Z,4.20
2023-04-05T07:12:48.536Z,4.47
2023-04-05T07:15:32.723Z,5.88
2023-04-05T07:18:15.880Z,4.20
2023-04-05T07:21:01.844Z,5.40
2023-04-05T07:23:44.719Z,6.07
2023-04-05T07:26:27.926Z,3.35
2023-04-05T07:29:11.190Z,4.10
2023-04-05T07:31:55.321Z,4.38
2023-04-05T07:34:38.344Z,3.78
2023-04-05T07:37:20.910Z,4.40
2023-04-05T07:40:05.892Z,5.00
2023-04-05T07:42:48.531Z,4.07
2023-04-05T07:45:31.182Z,6.32
2023-04-05T07:48:15.619Z,8.85
2023-04-05T07:50:58.338Z,5.65
2023-04-05T07:53:41.127Z,4.78
2023-04-05T07:56:24.327Z,6.20
2023-04-05T07:59:06.933Z,5.20
2023-04-05T08:01:49.583Z,3.92
2023-04-05T08:04:33.647Z,5.18
2023-04-05T08:07:16.389Z,3.97
2023-04-05T08:09:59.938Z,4.30
2023-04-05T08:12:42.670Z,4.82
2023-04-05T08:15:25.354Z,4.55
2023-04-05T08:18:08.139Z,5.15
2023-04-05T08:20:54.991Z,4.65
2023-04-05T08:23:37.674Z,3.33
2023-04-05T08:26:20.738Z,4.30
2023-04-05T08:29:03.445Z,4.72
2023-04-05T08:31:46.194Z,5.47
2023-04-05T08:34:28.941Z,6.43
2023-04-05T08:37:12.873Z,5.35
2023-04-05T08:39:55.564Z,6.15
2023-04-05T08:42:41.267Z,8.30
2023-04-05T08:45:25.661Z,4.72
2023-04-05T08:48:08.297Z,4.00
2023-04-05T08:50:52.289Z,8.13
2023-04-05T08:53:36.348Z,4.65
2023-04-05T08:56:21.368Z,3.83
2023-04-05T08:59:05.180Z,5.68
2023-04-05T09:01:49.595Z,4.78
2023-04-05T09:04:33.912Z,4.88
2023-04-05T09:07:16.783Z,5.18
2023-04-05T09:10:01.647Z,6.35
2023-04-05T09:12:44.639Z,4.15
2023-04-05T09:15:27.829Z,6.80
2023-04-05T09:18:23.180Z,7.32
2023-04-05T09:21:10.031Z,8.73
2023-04-05T09:23:55.683Z,6.45
2023-04-05T09:26:39.715Z,5.25
2023-04-05T09:29:30.122Z,5.22
2023-04-05T09:32:13.252Z,6.30
2023-04-05T09:34:55.948Z,3.97
2023-04-05T09:37:51.598Z,4.88
2023-04-05T09:40:44.535Z,3.70
2023-04-05T09:43:39.316Z,4.55
2023-04-05T09:46:30.886Z,6.13
2023-04-05T09:49:14.433Z,5.88
2023-04-05T09:51:57.598Z,5.07
2023-04-05T09:54:42.898Z,4.55
2023-04-05T09:57:27.639Z,6.78
2023-04-05T10:00:20.789Z,4.70
2023-04-05T10:03:03.553Z,6.00
2023-04-05T10:05:46.805Z,5.90
2023-04-05T10:08:29.553Z,3.95
2023-04-05T10:11:13.534Z,4.82
2023-04-05T10:13:56.472Z,4.28
2023-04-05T10:16:52.458Z,4.85
2023-04-05T10:19:38.826Z,5.47
2023-04-05T10:22:23.881Z,5.47
2023-04-05T10:25:08.643Z,4.93
2023-04-05T10:27:56.441Z,5.22
2023-04-05T10:30:43.543Z,4.00
2023-04-05T10:33:31.365Z,5.68
2023-04-05T10:36:17.968Z,4.53
2023-04-05T10:39:04.060Z,6.18
2023-04-05T10:41:48.731Z,5.50
2023-04-05T10:44:32.738Z,5.18
2023-04-05T10:47:17.334Z,3.60
2023-04-05T10:50:04.337Z,3.28
2023-04-05T10:52:48.181Z,4.60
2023-04-05T10:55:31.450Z,3.42
2023-04-05T10:58:14.490Z,4.97
2023-04-05T11:00:57.333Z,3.67
2023-04-05T11:03:46.179Z,2.95
2023-04-05T11:06:35.321Z,3.40
2023-04-05T11:09:18.951Z,3.95
2023-04-05T11:12:01.676Z,3.97
2023-04-05T11:14:44.588Z,3.15
2023-04-05T11:17:28.064Z,3.75
2023-04-05T11:20:12.639Z,3.70
2023-04-05T11:22:56.640Z,4.00
2023-04-05T11:25:40.271Z,3.70
2023-04-05T11:28:26.857Z,3.35
2023-04-05T11:31:13.776Z,2.53
2023-04-05T11:33:59.442Z,3.55
2023-04-05T11:36:45.983Z,3.00
2023-04-05T11:39:30.590Z,4.53
2023-04-05T11:42:13.523Z,3.92
2023-04-05T11:44:56.257Z,2.60
2023-04-05T11:47:39.572Z,3.10
2023-04-05T11:50:22.476Z,5.68
2023-04-05T11:53:14.561Z,2.90
2023-04-05T11:56:07.484Z,3.80
2023-04-05T11:58:50.199Z,3.15
2023-04-05T12:01:32.867Z,4.05
2023-04-05T12:04:15.538Z,4.28
2023-04-05T12:07:14.459Z,4.28
2023-04-05T12:09:57.880Z,4.55
2023-04-05T12:12:42.589Z,3.58
2023-04-05T12:15:25.446Z,4.47
2023-04-05T12:18:14.081Z,5.60
2023-04-05T12:20:56.955Z,3.80
2023-04-05T12:23:39.732Z,3.38
2023-04-05T12:26:22.708Z,3.45
2023-04-05T12:29:06.769Z,5.93
2023-04-05T12:31:51.607Z,4.65
2023-04-05T12:34:37.685Z,3.75
2023-04-05T12:37:20.418Z,4.72
2023-04-05T12:40:04.051Z,3.53
2023-04-05T12:42:46.769Z,3.13
2023-04-05T12:45:31.220Z,3.65
2023-04-05T12:48:14.539Z,3.25
2023-04-05T12:50:57.241Z,1.88
2023-04-05T12:53:45.621Z,2.55
2023-04-05T12:56:29.443Z,3.67
2023-04-05T12:59:12.465Z,4.07
2023-04-05T13:01:56.608Z,3.47
2023-04-05T13:04:39.330Z,2.47
2023-04-05T13:07:21.916Z,2.80
2023-04-05T13:10:04.815Z,2.88
2023-04-05T13:12:47.701Z,3.35
2023-04-05T13:15:30.596Z,2.08
2023-04-05T13:18:15.688Z,2.28
2023-04-05T13:20:58.677Z,4.80
2023-04-05T13:23:41.655Z,3.42
2023-04-05T13:26:24.501Z,5.05
2023-04-05T13:29:08.325Z,5.63
2023-04-05T13:31:51.070Z,4.72
2023-04-05T13:34:35.118Z,4.28
2023-04-05T13:37:17.751Z,5.53
2023-04-05T13:40:00.410Z,4.78
2023-04-05T13:42:43.184Z,5.55
2023-04-05T13:45:25.838Z,7.60
2023-04-05T13:48:08.596Z,5.03
2023-04-05T13:50:52.637Z,3.70
2023-04-05T13:53:35.433Z,3.67
2023-04-05T13:56:18.033Z,4.03
2023-04-05T13:59:00.841Z,5.30
2023-04-05T14:01:43.731Z,4.63
2023-04-05T14:04:26.486Z,5.43
2023-04-05T14:07:10.667Z,3.35
2023-04-05T14:09:53.663Z,5.88
2023-04-05T14:12:37.262Z,4.32
2023-04-05T14:15:20.057Z,2.42
2023-04-05T14:18:04.920Z,3.13
2023-04-05T14:20:48.331Z,2.97
2023-04-05T14:23:32.454Z,3.22
2023-04-05T14:26:15.695Z,2.45
2023-04-05T14:28:58.485Z,2.85
2023-04-05T14:31:41.336Z,2.88
2023-04-05T14:34:24.057Z,1.65
2023-04-05T14:37:07.907Z,1.75
2023-04-05T14:39:52.025Z,3.30
2023-04-05T14:42:47.551Z,2.10
2023-04-05T14:45:32.546Z,2.65
2023-04-05T14:48:15.334Z,2.17
2023-04-05T14:50:58.143Z,2.17
2023-04-05T14:53:41.516Z,3.05
2023-04-05T14:56:26.308Z,3.13
2023-04-05T14:59:09.118Z,2.00
2023-04-05T15:01:51.970Z,3.60
2023-04-05T15:04:34.784Z,2.85
2023-04-05T15:07:17.496Z,1.55
2023-04-05T15:10:00.538Z,3.47
2023-04-05T15:12:44.721Z,1.83
2023-04-05T15:15:27.561Z,1.50
2023-04-05T15:18:10.510Z,3.60
2023-04-05T15:20:53.455Z,1.63
2023-04-05T15:23:36.264Z,2.60
2023-04-05T15:26:19.316Z,3.08
2023-04-05T15:29:03.376Z,3.25
2023-04-05T15:31:47.677Z,3.03
2023-04-05T15:34:30.981Z,5.05
2023-04-05T15:37:13.888Z,1.77
2023-04-05T15:39:56.827Z,2.17
2023-04-05T15:42:39.630Z,3.15
2023-04-05T15:45:23.813Z,2.25
2023-04-05T15:48:06.771Z,2.25
2023-04-05T15:50:49.504Z,4.03
2023-04-05T15:53:32.234Z,2.00
2023-04-05T15:56:14.939Z,2.22
2023-04-05T15:58:57.767Z,2.38
2023-04-05T16:01:41.945Z,2.85
2023-04-05T16:04:24.963Z,2.20
2023-04-05T16:07:07.715Z,3.70
2023-04-05T16:09:50.558Z,1.92
2023-04-05T16:12:33.317Z,3.67
2023-04-05T16:15:16.310Z,2.42
2023-04-05T16:18:00.564Z,3.33
2023-04-05T16:20:44.232Z,2.80
2023-04-05T16:23:27.006Z,3.65
2023-04-05T16:26:09.800Z,2.35
2023-04-05T16:28:52.702Z,1.42
2023-04-05T16:31:36.195Z,1.63
2023-04-05T16:34:20.399Z,1.92
2023-04-05T16:37:03.189Z,1.27
2023-04-05T16:39:46.066Z,3.05
2023-04-05T16:42:28.849Z,2.17
2023-04-05T16:45:12.473Z,2.45
2023-04-05T16:47:55.340Z,2.70
2023-04-05T16:50:39.516Z,1.95
2023-04-05T16:53:22.229Z,3.00
2023-04-05T16:56:05.010Z,3.00
2023-04-05T16:58:47.759Z,2.00
2023-04-05T17:01:30.524Z,1.80
2023-04-05T17:04:13.343Z,2.13
2023-04-05T17:06:57.382Z,2.60
2023-04-05T17:09:40.104Z,1.70
2023-04-05T17:12:22.786Z,1.52
2023-04-05T17:15:05.704Z,1.23
2023-04-05T17:17:48.443Z,2.35
2023-04-05T17:20:31.256Z,1.58
2023-04-05T17:23:15.464Z,1.30
2023-04-05T17:25:58.186Z,1.48
2023-04-05T17:28:40.868Z,3.45
2023-04-05T17:31:23.711Z,1.85
2023-04-05T17:34:08.450Z,1.30
2023-04-05T17:36:52.663Z,1.38
2023-04-05T17:39:36.780Z,0.70
2023-04-05T17:42:19.599Z,2.17
2023-04-05T17:45:02.580Z,4.85
2023-04-05T17:47:45.505Z,2.03
2023-04-05T17:50:28.496Z,1.73
2023-04-05T17:53:11.305Z,2.97
2023-04-05T17:55:57.672Z,2.53
2023-04-05T17:58:40.528Z,2.03
2023-04-05T18:01:23.279Z,2.42
2023-04-05T18:04:06.493Z,1.83
2023-04-05T18:06:50.365Z,2.95
2023-04-05T18:09:33.176Z,3.10
2023-04-05T18:12:17.258Z,2.78
2023-04-05T18:15:00.017Z,4.05
2023-04-05T18:17:44.863Z,3.78
2023-04-05T18:20:27.831Z,5.53
2023-04-05T18:23:10.681Z,3.70
2023-04-05T18:25:53.997Z,3.38
2023-04-05T18:28:38.159Z,3.95
2023-04-05T18:31:23.139Z,3.85
2023-04-05T18:34:06.172Z,4.90
2023-04-05T18:36:49.008Z,6.47
2023-04-05T18:39:31.803Z,5.10
2023-04-05T18:42:14.561Z,3.92
2023-04-05T18:44:58.645Z,5.93
2023-04-05T18:47:41.357Z,4.68
2023-04-05T18:50:24.116Z,3.22
2023-04-05T18:53:07.051Z,4.32
2023-04-05T18:55:51.262Z,4.10
2023-04-05T18:58:33.972Z,5.72
2023-04-05T19:01:19.867Z,4.07
2023-04-05T19:04:03.997Z,3.65
2023-04-05T19:06:46.716Z,2.63
2023-04-05T19:09:29.443Z,3.35
2023-04-05T19:12:12.147Z,2.50
2023-04-05T19:14:54.888Z,4.80
2023-04-05T19:17:38.993Z,2.88
2023-04-05T19:20:21.794Z,3.72
2023-04-05T19:23:04.492Z,3.00
2023-04-05T19:25:47.198Z,2.63
2023-04-05T19:28:29.953Z,3.25
2023-04-05T19:31:12.888Z,4.18
2023-04-05T19:33:57.093Z,5.50
2023-04-05T19:36:39.861Z,3.10
2023-04-05T19:39:25.532Z,3.08
2023-04-05T19:42:08.728Z,2.65
2023-04-05T19:44:52.372Z,4.07
2023-04-05T19:47:35.682Z,3.72
2023-04-05T19:50:40.889Z,2.85
2023-04-05T19:53:44.379Z,4.30
2023-04-05T19:56:29.702Z,3.92
2023-04-05T19:59:26.152Z,3.97
2023-04-05T20:02:14.352Z,3.55
2023-04-05T20:04:57.161Z,3.13
2023-04-05T20:07:41.247Z,2.78
2023-04-05T20:10:40.253Z,7.28
2023-04-05T20:13:22.975Z,4.57
2023-04-05T20:16:06.575Z,4.45
2023-04-05T20:18:49.555Z,2.53
2023-04-05T20:21:32.482Z,2.88
2023-04-05T20:24:17.290Z,3.95
2023-04-05T20:27:03.123Z,3.03
2023-04-05T20:29:45.961Z,2.42
2023-04-05T20:32:29.019Z,2.90
2023-04-05T20:35:31.378Z,3.47
2023-04-05T20:38:14.167Z,1.58
2023-04-05T20:40:58.282Z,4.47
2023-04-05T20:43:41.431Z,3.92
2023-04-05T20:46:24.534Z,4.57
2023-04-05T20:49:07.772Z,2.90
2023-04-05T20:51:50.885Z,2.20
2023-04-05T20:54:33.673Z,3.50
2023-04-05T20:57:17.959Z,2.15
2023-04-05T21:00:02.205Z,2.10
2023-04-05T21:02:45.023Z,3.17
2023-04-05T21:05:27.726Z,2.25
2023-04-05T21:08:10.957Z,1.92
2023-04-05T21:10:53.865Z,2.35
2023-04-05T21:13:37.908Z,2.50
2023-04-05T21:16:20.640Z,2.35
2023-04-05T21:19:03.389Z,2.75
2023-04-05T21:21:46.077Z,2.53
2023-04-05T21:24:28.732Z,3.65
2023-04-05T21:27:11.409Z,2.47
2023-04-05T21:29:55.582Z,2.92
2023-04-05T21:32:38.351Z,2.65
2023-04-05T21:35:22.292Z,2.08
2023-04-05T21:38:05.100Z,1.95
2023-04-05T21:40:49.973Z,2.33
2023-04-05T21:43:32.746Z,1.88
2023-04-05T21:46:17.902Z,2.60
2023-04-05T21:49:02.168Z,2.92
2023-04-05T21:51:44.859Z,3.78
2023-04-05T21:54:27.562Z,2.63
2023-04-05T21:57:10.290Z,2.90
2023-04-05T21:59:53.086Z,3.55
2023-04-05T22:02:37.104Z,4.10
2023-04-05T22:05:33.911Z,4.15
2023-04-05T22:08:19.483Z,2.88
2023-04-05T22:11:02.408Z,3.60
2023-04-05T22:13:45.455Z,7.00
2023-04-05T22:16:28.214Z,2.47
2023-04-05T22:19:12.437Z,4.75
2023-04-05T22:21:55.793Z,6.50
2023-04-05T22:24:38.452Z,9.73
2023-04-05T22:27:21.220Z,4.60
2023-04-05T22:30:04.060Z,4.22
2023-04-05T22:32:46.855Z,3.47
2023-04-05T22:35:30.968Z,5.50
2023-04-05T22:38:13.742Z,4.32
2023-04-05T22:40:56.414Z,7.63
2023-04-05T22:43:39.184Z,6.93
2023-04-05T22:46:21.968Z,7.57
2023-04-05T22:49:04.775Z,6.60
2023-04-05T22:51:48.854Z,6.88
2023-04-05T22:54:31.595Z,5.85
2023-04-05T22:57:14.282Z,5.72
2023-04-05T22:59:57.012Z,6.60
2023-04-05T23:02:39.779Z,5.45
2023-04-05T23:05:22.734Z,4.15
2023-04-05T23:08:06.914Z,4.45
2023-04-05T23:10:49.655Z,4.93
2023-04-05T23:13:32.394Z,8.80
2023-04-05T23:16:15.158Z,7.97
2023-04-05T23:18:58.255Z,7.15
2023-04-05T23:21:40.913Z,5.90
2023-04-05T23:24:24.982Z,6.97
2023-04-05T23:27:07.683Z,6.68
2023-04-05T23:29:50.364Z,6.70
2023-04-05T23:32:33.107Z,6.25
2023-04-05T23:35:16.048Z,5.35
2023-04-05T23:37:58.764Z,4.07
2023-04-05T23:40:42.793Z,6.55
2023-04-05T23:43:25.523Z,4.65
2023-04-05T23:46:08.288Z,4.05
2023-04-05T23:48:51.083Z,4.13
2023-04-05T23:51:33.756Z,4.53
2023-04-05T23:54:16.569Z,5.45
2023-04-05T23:57:01.424Z,5.57
2023-04-05T23:59:44.129Z,4.90
